Time;durP1;ratioP1;P1;durP2;ratioP2;P2;SDS_P1;SDS_P2;PMS_P1;PMS_P2;Temp;Humidity;BMP_temperature;BMP_pressure;BME280_temperature;BME280_humidity;BME280_pressure;Samples;Min_cycle;Max_cycle;Signal;HPM_P1;HPM_P2
2022/12/26 00:03:56;;;;;;;1.10;0.85;;;;;;;9.30;100.00;101339.56;10487258;28;20041;-81
2022/12/26 00:09:02;;;;;;;0.50;0.50;;;;;;;9.41;100.00;101335.72;10481969;28;20091;-83
2022/12/26 00:14:11;;;;;;;1.20;0.60;;;;;;;9.26;100.00;101342.84;10483857;28;20040;-82
2022/12/26 00:19:13;;;;;;;3.67;1.95;;;;;;;9.16;100.00;101336.44;10484498;28;20055;-83
2022/12/26 00:24:15;;;;;;;0.28;0.28;;;;;;;9.28;100.00;101346.34;10484405;28;20041;-83
2022/12/26 00:29:16;;;;;;;0.30;0.20;;;;;;;9.16;100.00;101337.34;10517261;28;20560;-80
2022/12/26 00:34:18;;;;;;;1.45;0.75;;;;;;;9.27;100.00;101352.31;10524811;28;20074;-80
2022/12/26 00:39:22;;;;;;;1.75;0.90;;;;;;;9.39;100.00;101363.06;10523914;28;20040;-80
2022/12/26 00:44:24;;;;;;;0.70;0.70;;;;;;;9.42;100.00;101360.59;10506609;28;20045;-80
2022/12/26 00:49:27;;;;;;;1.02;0.73;;;;;;;9.40;100.00;101353.63;10486958;28;20049;-81
2022/12/26 00:54:48;;;;;;;2.58;1.58;;;;;;;9.32;100.00;101373.94;10484345;28;20036;-79
2022/12/26 00:59:50;;;;;;;2.00;1.17;;;;;;;9.52;100.00;101362.69;10465246;28;20056;-80
2022/12/26 01:04:51;;;;;;;1.67;0.88;;;;;;;9.49;100.00;101352.28;10498412;28;20045;-79
2022/12/26 01:09:53;;;;;;;0.85;0.70;;;;;;;9.49;100.00;101354.00;10481818;28;20044;-78
2022/12/26 01:14:59;;;;;;;0.88;0.88;;;;;;;9.55;100.00;101358.50;10522874;28;20048;-79
2022/12/26 01:20:01;;;;;;;2.95;0.82;;;;;;;9.68;100.00;101356.41;10504377;28;20051;-80
2022/12/26 01:25:03;;;;;;;1.55;1.23;;;;;;;9.76;100.00;101348.09;10505544;28;20044;-79
2022/12/26 01:30:06;;;;;;;1.27;0.90;;;;;;;9.65;100.00;101370.88;10499379;28;20048;-79
2022/12/26 01:35:08;;;;;;;1.65;0.85;;;;;;;9.63;100.00;101381.09;10500126;28;20101;-78
2022/12/26 01:40:10;;;;;;;1.70;0.80;;;;;;;9.63;100.00;101385.41;10498727;28;20060;-79
2022/12/26 01:45:28;;;;;;;1.13;0.93;;;;;;;9.64;100.00;101377.72;10481917;28;20049;-80
2022/12/26 01:50:42;;;;;;;0.98;0.90;;;;;;;9.68;100.00;101379.56;10482747;28;20504;-79
2022/12/26 01:55:48;;;;;;;0.30;0.30;;;;;;;9.64;100.00;101367.44;10485740;28;20067;-80
2022/12/26 02:00:51;;;;;;;4.47;1.02;;;;;;;9.65;100.00;101358.00;10501166;28;20507;-80
2022/12/26 02:05:56;;;;;;;0.85;0.65;;;;;;;9.67;100.00;101362.41;10480277;28;20063;-80
2022/12/26 02:11:11;;;;;;;1.42;0.95;;;;;;;9.65;100.00;101352.84;10508170;28;20083;-80
2022/12/26 02:16:17;;;;;;;0.77;0.70;;;;;;;9.55;100.00;101366.22;10522120;28;20471;-80
2022/12/26 02:21:30;;;;;;;1.40;1.17;;;;;;;9.57;100.00;101355.16;10494190;28;20071;-80
2022/12/26 02:26:51;;;;;;;5.72;1.95;;;;;;;9.48;100.00;101353.13;10464496;28;20095;-80
2022/12/26 02:32:10;;;;;;;1.02;0.95;;;;;;;9.53;100.00;101361.88;10501698;28;21935;-80
2022/12/26 02:37:43;;;;;;;2.50;1.15;;;;;;;9.53;100.00;101358.44;10494631;28;20044;-80
2022/12/26 02:43:23;;;;;;;1.35;1.00;;;;;;;9.61;100.00;101367.31;10529955;28;20040;-80
2022/12/26 02:48:37;;;;;;;2.10;1.15;;;;;;;9.58;100.00;101361.16;10513635;28;20521;-80
2022/12/26 03:21:28;;;;;;;4.53;2.03;;;;;;;9.43;100.00;101352.06;10508437;28;20040;-80
2022/12/26 03:26:38;;;;;;;2.15;1.48;;;;;;;9.46;100.00;101365.03;10488401;28;20040;-81
2022/12/26 03:31:40;;;;;;;3.40;1.58;;;;;;;9.44;100.00;101364.09;10491344;28;20056;-82
2022/12/26 03:36:50;;;;;;;1.60;0.82;;;;;;;9.50;100.00;101353.19;10484936;28;20405;-82
2022/12/26 04:54:14;;;;;;;1.77;1.20;;;;;;;9.41;100.00;101402.59;10480447;28;20040;-83
2022/12/26 04:59:16;;;;;;;1.20;1.05;;;;;;;9.40;100.00;101398.25;10486759;28;20048;-82
2022/12/26 05:09:38;;;;;;;3.83;2.10;;;;;;;9.38;100.00;101373.31;10474242;28;20045;-83
2022/12/26 05:14:40;;;;;;;1.00;0.75;;;;;;;9.37;100.00;101367.25;10459207;28;20139;-83
2022/12/26 05:30:23;;;;;;;1.02;0.90;;;;;;;9.29;100.00;101358.38;10482303;28;20048;-83
2022/12/26 05:35:25;;;;;;;3.20;1.42;;;;;;;9.13;100.00;101362.91;10480242;28;20052;-84
2022/12/26 05:40:27;;;;;;;1.65;1.13;;;;;;;9.11;100.00;101364.56;10480247;28;20056;-83
2022/12/26 05:45:29;;;;;;;0.88;0.77;;;;;;;9.11;100.00;101358.53;10480173;28;20047;-83
2022/12/26 05:50:33;;;;;;;0.40;0.40;;;;;;;9.07;100.00;101352.41;10496703;28;20405;-83
2022/12/26 05:55:35;;;;;;;1.38;1.00;;;;;;;9.09;100.00;101345.63;10479817;28;20040;-83
2022/12/26 06:00:36;;;;;;;1.27;0.73;;;;;;;8.96;100.00;101351.97;10480100;28;20098;-84
2022/12/26 06:05:40;;;;;;;1.60;0.70;;;;;;;8.88;100.00;101356.84;10482625;28;20101;-84
2022/12/26 06:10:42;;;;;;;1.00;0.85;;;;;;;8.79;100.00;101338.47;10488709;28;20051;-85
2022/12/26 06:15:44;;;;;;;1.30;0.75;;;;;;;8.66;100.00;101328.53;10488256;28;20051;-83
2022/12/26 06:20:46;;;;;;;1.10;0.52;;;;;;;8.67;100.00;101320.00;10524655;28;20075;-84
2022/12/26 06:25:55;;;;;;;0.90;0.43;;;;;;;8.70;100.00;101330.38;10526623;28;20048;-83
2022/12/26 06:31:08;;;;;;;0.30;0.30;;;;;;;8.70;100.00;101326.13;10502494;28;20044;-84
2022/12/26 06:36:15;;;;;;;0.98;0.77;;;;;;;8.62;100.00;101300.94;10534609;28;20032;-83
2022/12/26 06:41:19;;;;;;;0.10;0.10;;;;;;;8.60;100.00;101323.13;10453280;28;20049;-83
2022/12/26 06:46:23;;;;;;;0.15;0.15;;;;;;;8.56;100.00;101337.53;10467932;28;20102;-83
2022/12/26 06:51:27;;;;;;;1.45;0.45;;;;;;;8.56;100.00;101343.53;10503715;28;20052;-84
2022/12/26 06:56:30;;;;;;;1.00;0.28;;;;;;;8.50;100.00;101351.00;10502608;28;20041;-83
2022/12/26 07:01:34;;;;;;;0.57;0.50;;;;;;;8.51;100.00;101355.31;10469717;28;20068;-85
2022/12/26 07:06:41;;;;;;;0.65;0.22;;;;;;;8.45;100.00;101370.41;10470590;28;20487;-84
2022/12/26 07:11:49;;;;;;;0.15;0.13;;;;;;;8.45;100.00;101374.69;10486485;28;20044;-84
2022/12/26 07:16:50;;;;;;;0.77;0.47;;;;;;;8.62;100.00;101373.75;10485803;28;20044;-84
2022/12/26 07:21:55;;;;;;;0.20;0.20;;;;;;;8.77;100.00;101378.63;10493885;28;20052;-87
2022/12/26 07:26:58;;;;;;;0.30;0.22;;;;;;;8.79;100.00;101379.56;10468869;28;20048;-82
2022/12/26 07:32:00;;;;;;;0.93;0.52;;;;;;;8.97;100.00;101386.28;10503676;28;20048;-85
2022/12/26 07:37:02;;;;;;;0.82;0.35;;;;;;;9.00;100.00;101387.28;10486342;28;20450;-83
2022/12/26 07:42:04;;;;;;;1.58;0.40;;;;;;;8.99;100.00;101389.78;10485605;28;20059;-84
2022/12/26 07:47:06;;;;;;;2.22;0.57;;;;;;;9.05;100.00;101384.88;10485040;28;20090;-83
2022/12/26 07:52:23;;;;;;;;;;;;;;;;;;;;;
2022/12/26 07:57:26;;;;;;;0.65;0.55;;;;;;;8.94;100.00;101375.88;10484894;28;20044;-84
2022/12/26 08:02:52;;;;;;;0.20;0.20;;;;;;;8.94;100.00;101373.31;10475918;28;20037;-84
2022/12/26 08:07:54;;;;;;;0.52;0.43;;;;;;;8.88;100.00;101372.25;10501164;28;20044;-84
2022/12/26 08:12:56;;;;;;;0.00;0.00;;;;;;;8.93;100.00;101356.13;10489981;28;20049;-83
2022/12/26 08:17:58;;;;;;;0.35;0.35;;;;;;;8.87;100.00;101355.06;10443107;28;20049;-84
2022/12/26 08:23:01;;;;;;;0.10;0.10;;;;;;;8.94;100.00;101353.59;10443117;28;20048;-86
2022/12/26 08:28:02;;;;;;;0.30;0.25;;;;;;;8.88;100.00;101361.06;10459334;28;20083;-81
2022/12/26 08:33:04;;;;;;;0.32;0.30;;;;;;;8.87;100.00;101355.06;10468372;28;20048;-83
2022/12/26 08:38:06;;;;;;;0.30;0.30;;;;;;;8.89;100.00;101357.69;10485613;28;20048;-83
2022/12/26 08:43:08;;;;;;;0.85;0.63;;;;;;;9.03;100.00;101350.53;10486193;28;20120;-84
2022/12/26 08:48:31;;;;;;;2.35;0.77;;;;;;;9.14;100.00;101344.13;10485580;28;20044;-84
2022/12/26 08:53:37;;;;;;;0.20;0.10;;;;;;;9.13;100.00;101349.19;10485786;28;20450;-84
2022/12/26 09:05:38;;;;;;;0.08;0.08;;;;;;;9.38;100.00;101347.59;10501507;28;20472;-83
2022/12/26 09:10:40;;;;;;;0.82;0.45;;;;;;;9.47;100.00;101328.22;10458413;28;20103;-86
2022/12/26 09:15:42;;;;;;;0.30;0.20;;;;;;;9.36;100.00;101339.78;10441707;28;20053;-84
2022/12/26 09:20:43;;;;;;;0.28;0.28;;;;;;;9.73;100.00;101341.16;10440410;28;20040;-83
2022/12/26 09:32:45;;;;;;;0.17;0.17;;;;;;;9.79;100.00;101327.66;10498882;28;20028;-83
2022/12/26 09:37:47;;;;;;;0.55;0.20;;;;;;;10.03;100.00;101331.91;10497818;28;20056;-83
2022/12/26 09:43:01;;;;;;;0.10;0.10;;;;;;;9.99;100.00;101271.72;10497671;28;20055;-82
2022/12/26 09:48:11;;;;;;;0.30;0.28;;;;;;;10.13;100.00;101273.06;10498040;28;20048;-83
2022/12/26 09:53:24;;;;;;;0.15;0.08;;;;;;;10.02;100.00;101261.50;10497067;28;20086;-81
2022/12/26 09:58:32;;;;;;;0.00;0.00;;;;;;;10.35;100.00;101260.91;10460030;28;20078;-80
2022/12/26 10:03:39;;;;;;;0.00;0.00;;;;;;;10.38;100.00;101240.44;10479947;28;20055;-81
2022/12/26 10:09:09;;;;;;;0.00;0.00;;;;;;;10.47;100.00;101245.84;10497159;28;20090;-80
2022/12/26 10:14:55;;;;;;;0.20;0.20;;;;;;;10.46;100.00;101248.41;10481837;28;20037;-81
2022/12/26 10:20:06;;;;;;;0.20;0.15;;;;;;;10.54;100.00;101244.38;10503225;28;20056;-80
2022/12/26 10:25:18;;;;;;;0.20;0.20;;;;;;;10.42;100.00;101242.28;10494346;28;20060;-83
2022/12/26 10:30:31;;;;;;;0.25;0.25;;;;;;;10.46;100.00;101244.09;10504835;28;20487;-82
2022/12/26 10:35:40;;;;;;;0.52;0.15;;;;;;;10.35;100.00;101250.59;10467189;28;20044;-82
2022/12/26 10:40:46;;;;;;;0.07;0.07;;;;;;;10.30;100.00;101277.91;10492092;28;20055;-83
2022/12/26 10:46:44;;;;;;;0.80;0.22;;;;;;;10.10;100.00;101316.72;10497184;28;20298;-81
2022/12/26 10:51:46;;;;;;;0.52;0.52;;;;;;;9.79;100.00;101361.97;10315720;28;20423;-80
2022/12/26 10:56:50;;;;;;;0.40;0.40;;;;;;;9.46;100.00;101383.06;10455045;28;20044;-81
2022/12/26 11:01:52;;;;;;;0.00;0.00;;;;;;;9.55;100.00;101391.94;10532017;28;20048;-81
2022/12/26 11:07:07;;;;;;;1.88;1.27;;;;;;;9.60;100.00;101395.56;10481034;28;20083;-82
2022/12/26 11:12:48;;;;;;;0.10;0.10;;;;;;;9.69;100.00;101407.06;10470320;28;20476;-81
2022/12/26 11:17:52;;;;;;;0.00;0.00;;;;;;;9.62;100.00;101411.94;10487426;28;20045;-80
2022/12/26 11:23:17;;;;;;;0.05;0.05;;;;;;;9.60;100.00;101421.28;10507578;28;20052;-82
2022/12/26 11:28:35;;;;;;;0.00;0.00;;;;;;;9.66;100.00;101424.97;10462568;28;20036;-80
2022/12/26 11:33:40;;;;;;;0.30;0.10;;;;;;;9.56;100.00;101437.44;10482457;28;20064;-83
2022/12/26 11:38:45;;;;;;;0.52;0.22;;;;;;;9.14;100.00;101431.50;10465430;28;20495;-82
2022/12/26 11:43:49;;;;;;;0.00;0.00;;;;;;;8.53;100.00;101399.91;10486891;28;20403;-82
2022/12/26 11:48:52;;;;;;;0.00;0.00;;;;;;;8.63;100.00;101390.03;10472505;28;20045;-83
2022/12/26 11:54:16;;;;;;;18.45;0.52;;;;;;;8.33;100.00;101385.31;10473977;28;20049;-83
2022/12/26 11:59:22;;;;;;;0.57;0.32;;;;;;;8.45;100.00;101398.66;10469080;28;20483;-83
2022/12/26 12:04:31;;;;;;;0.00;0.00;;;;;;;8.10;100.00;101398.03;10468809;28;20040;-84
2022/12/26 12:09:43;;;;;;;0.08;0.03;;;;;;;8.06;100.00;101401.28;10493973;28;20101;-82
2022/12/26 12:15:20;;;;;;;0.10;0.10;;;;;;;7.99;100.00;101389.84;10458666;28;20076;-83
2022/12/26 12:20:25;;;;;;;0.20;0.10;;;;;;;7.90;100.00;101389.44;10469983;28;20049;-83
2022/12/26 12:25:48;;;;;;;0.32;0.30;;;;;;;7.84;100.00;101390.06;10481144;28;20044;-83
2022/12/26 12:31:18;;;;;;;1.02;0.85;;;;;;;7.86;100.00;101397.81;10480273;28;20531;-83
2022/12/26 12:36:44;;;;;;;2.80;1.08;;;;;;;7.83;100.00;101408.84;10477069;28;20040;-82
2022/12/26 12:42:10;;;;;;;0.10;0.10;;;;;;;8.06;100.00;101403.84;10440569;28;20083;-81
2022/12/26 12:47:45;;;;;;;0.50;0.20;;;;;;;8.18;100.00;101401.81;10448523;28;20045;-82
2022/12/26 12:53:05;;;;;;;0.00;0.00;;;;;;;8.23;100.00;101410.56;10478038;28;20098;-82
2022/12/26 12:58:17;;;;;;;0.57;0.30;;;;;;;8.46;100.00;101423.53;10441530;28;20554;-82
2022/12/26 13:03:46;;;;;;;3.25;0.55;;;;;;;8.36;100.00;101423.97;10464939;28;20094;-82
2022/12/26 13:08:57;;;;;;;0.00;0.00;;;;;;;8.76;100.00;101425.69;10484896;28;20040;-82
2022/12/26 13:14:08;;;;;;;0.00;0.00;;;;;;;8.28;100.00;101405.66;10495433;28;20039;-81
2022/12/26 13:19:31;;;;;;;0.00;0.00;;;;;;;8.34;100.00;101407.63;10478883;28;20457;-83
2022/12/26 13:24:42;;;;;;;0.60;0.20;;;;;;;8.44;100.00;101420.06;10478065;28;20048;-81
2022/12/26 13:29:46;;;;;;;1.67;0.30;;;;;;;8.20;100.00;101415.59;10478997;28;20048;-82
2022/12/26 13:34:49;;;;;;;0.00;0.00;;;;;;;8.18;100.00;101417.22;10465245;28;20040;-82
2022/12/26 13:39:51;;;;;;;0.10;0.10;;;;;;;8.31;100.00;101428.00;10506327;28;20048;-82
2022/12/26 13:44:53;;;;;;;0.00;0.00;;;;;;;8.10;100.00;101428.81;10482471;28;20102;-82
2022/12/26 13:49:55;;;;;;;0.00;0.00;;;;;;;7.96;100.00;101440.16;10461141;28;20149;-82
2022/12/26 13:55:06;;;;;;;0.10;0.10;;;;;;;7.98;100.00;101443.69;10476984;28;20488;-82
2022/12/26 14:00:18;;;;;;;0.00;0.00;;;;;;;7.76;100.00;101458.09;10476964;28;20139;-82
2022/12/26 14:05:25;;;;;;;0.00;0.00;;;;;;;7.60;100.00;101457.38;10466341;28;20098;-81
2022/12/26 14:10:36;;;;;;;0.75;0.10;;;;;;;7.45;100.00;101464.34;10476802;28;20113;-82
2022/12/26 14:15:56;;;;;;;0.00;0.00;;;;;;;7.20;100.00;101481.09;10469718;28;20041;-80
2022/12/26 14:21:19;;;;;;;0.55;0.15;;;;;;;7.30;100.00;101493.56;10474879;28;20079;-82
2022/12/26 14:26:40;;;;;;;0.00;0.00;;;;;;;7.12;100.00;101497.78;10466024;28;20135;-80
2022/12/26 14:32:11;;;;;;;0.00;0.00;;;;;;;7.02;100.00;101501.56;10483642;28;20122;-80
2022/12/26 14:37:31;;;;;;;;;;;;;;;7.03;100.00;101513.56;10472233;28;20385;-81
2022/12/26 14:43:11;;;;;;;0.00;0.00;;;;;;;6.90;100.00;101506.94;10470120;28;19927;-80
2022/12/26 14:48:16;;;;;;;0.00;0.00;;;;;;;6.85;100.00;101508.41;10479480;28;20430;-82
2022/12/26 14:53:23;;;;;;;0.00;0.00;;;;;;;6.66;100.00;101512.56;10483292;28;20060;-81
2022/12/26 14:58:34;;;;;;;0.00;0.00;;;;;;;6.51;100.00;101532.28;10482635;28;20080;-81
2022/12/26 15:04:14;;;;;;;0.03;0.03;;;;;;;6.35;100.00;101528.91;10475708;28;20071;-83
2022/12/26 15:09:37;;;;;;;0.00;0.00;;;;;;;6.29;100.00;101535.38;10439703;28;20097;-81
2022/12/26 15:14:56;;;;;;;0.00;0.00;;;;;;;6.11;100.00;101554.03;10468819;28;20070;-83
2022/12/26 15:20:22;;;;;;;0.00;0.00;;;;;;;6.14;100.00;101571.25;10488056;28;20043;-82
2022/12/26 15:25:40;;;;;;;0.00;0.00;;;;;;;6.11;100.00;101581.31;10483000;28;20113;-83
2022/12/26 15:31:13;;;;;;;0.00;0.00;;;;;;;6.23;100.00;101599.88;10483778;28;20090;-83
2022/12/26 15:36:38;;;;;;;0.00;0.00;;;;;;;6.29;100.00;101618.13;10487972;28;20143;-81
2022/12/26 15:41:47;;;;;;;0.30;0.20;;;;;;;6.41;100.00;101619.63;10482866;28;20464;-83
2022/12/26 15:47:36;;;;;;;0.00;0.00;;;;;;;6.19;100.00;101631.22;10483953;28;20040;-82
2022/12/26 15:53:15;;;;;;;0.28;0.22;;;;;;;6.23;100.00;101630.59;10493497;28;20056;-83
2022/12/26 15:58:43;;;;;;;0.25;0.25;;;;;;;6.00;100.00;101637.00;10470011;28;20116;-82
2022/12/26 16:03:54;;;;;;;0.00;0.00;;;;;;;5.82;100.00;101654.72;10457625;28;20048;-83
2022/12/26 16:09:18;;;;;;;0.00;0.00;;;;;;;5.67;100.00;101655.59;10521140;28;20048;-84
2022/12/26 16:14:37;;;;;;;1.17;0.50;;;;;;;5.57;100.00;101648.16;10505994;28;20041;-83
2022/12/26 16:19:41;;;;;;;0.52;0.52;;;;;;;5.44;100.00;101656.78;10495005;28;20049;-83
2022/12/26 16:24:43;;;;;;;0.00;0.00;;;;;;;5.26;100.00;101674.47;10499045;28;20064;-83
2022/12/26 16:29:48;;;;;;;0.00;0.00;;;;;;;5.12;100.00;101688.06;10482967;28;20040;-83
2022/12/26 16:34:50;;;;;;;0.03;0.03;;;;;;;4.87;100.00;101687.47;10473541;28;20492;-83
2022/12/26 16:40:07;;;;;;;0.35;0.13;;;;;;;4.69;100.00;101688.91;10480506;28;20059;-83
2022/12/26 16:45:18;;;;;;;0.32;0.25;;;;;;;4.59;100.00;101700.16;10480063;28;20044;-83
2022/12/26 16:50:27;;;;;;;0.55;0.45;;;;;;;4.44;100.00;101703.50;10495729;28;20127;-83
2022/12/26 16:55:38;;;;;;;0.00;0.00;;;;;;;4.66;100.00;101712.53;10484184;28;20071;-82
2022/12/26 17:00:43;;;;;;;;;;;;;;;4.66;100.00;101717.63;10478368;28;20049;-82
2022/12/26 17:05:45;;;;;;;0.00;0.00;;;;;;;4.52;100.00;101723.53;10477920;28;20380;-82
2022/12/26 17:10:49;;;;;;;0.00;0.00;;;;;;;4.40;100.00;101734.75;10465829;28;20052;-83
2022/12/26 17:15:54;;;;;;;0.00;0.00;;;;;;;4.40;100.00;101724.53;10477287;28;20396;-82
2022/12/26 17:21:15;;;;;;;15.95;0.52;;;;;;;4.36;100.00;101737.84;10464755;28;20412;-83
2022/12/26 17:26:24;;;;;;;0.03;0.03;;;;;;;4.35;100.00;101746.31;10477747;28;20041;-82
2022/12/26 17:31:36;;;;;;;0.00;0.00;;;;;;;4.13;100.00;101760.19;10477177;28;20049;-83
2022/12/26 17:36:38;;;;;;;0.00;0.00;;;;;;;4.23;100.00;101768.47;10470025;28;20061;-82
2022/12/26 17:42:00;;;;;;;0.22;0.17;;;;;;;3.97;100.00;101775.28;10474107;28;20052;-82
2022/12/26 17:47:14;;;;;;;0.00;0.00;;;;;;;4.08;100.00;101771.78;10477408;28;20044;-83
2022/12/26 17:52:19;;;;;;;0.00;0.00;;;;;;;3.84;100.00;101785.44;10452935;28;20052;-83
2022/12/26 17:57:23;;;;;;;0.00;0.00;;;;;;;3.75;100.00;101789.16;10468131;28;20448;-82
2022/12/26 18:02:25;;;;;;;0.00;0.00;;;;;;;3.88;100.00;101777.22;10480626;28;20139;-82
2022/12/26 18:07:27;;;;;;;0.00;0.00;;;;;;;3.70;100.00;101803.22;10484892;28;20071;-83
2022/12/26 18:12:32;;;;;;;0.00;0.00;;;;;;;3.74;100.00;101814.50;10484813;28;20377;-82
2022/12/26 18:17:34;;;;;;;0.00;0.00;;;;;;;3.64;100.00;101818.09;10503184;28;20037;-83
2022/12/26 18:22:36;;;;;;;0.00;0.00;;;;;;;3.60;100.00;101821.22;10485002;28;20052;-83
2022/12/26 18:27:37;;;;;;;1.55;0.70;;;;;;;3.56;100.00;101817.59;10489987;28;20052;-83
2022/12/26 18:32:39;;;;;;;0.10;0.10;;;;;;;3.53;100.00;101824.13;10528078;28;20115;-83
2022/12/26 18:37:45;;;;;;;0.10;0.10;;;;;;;3.48;100.00;101832.31;10486718;28;20132;-83
2022/12/26 18:42:47;;;;;;;0.00;0.00;;;;;;;3.50;100.00;101840.06;10514595;28;20036;-83
2022/12/26 18:47:48;;;;;;;0.00;0.00;;;;;;;3.44;100.00;101855.84;10484103;28;20049;-83
2022/12/26 18:52:50;;;;;;;0.32;0.20;;;;;;;3.51;100.00;101851.16;10484493;28;20051;-83
2022/12/26 18:57:54;;;;;;;0.00;0.00;;;;;;;3.17;100.00;101863.28;10499990;28;20044;-82
2022/12/26 19:02:57;;;;;;;0.85;0.43;;;;;;;3.21;100.00;101876.22;10483461;28;20044;-82
2022/12/26 19:08:00;;;;;;;0.25;0.25;;;;;;;3.32;100.00;101882.97;10463833;28;20053;-83
2022/12/26 19:13:05;;;;;;;1.55;1.08;;;;;;;3.37;100.00;101899.47;10482058;28;20131;-82
2022/12/26 19:18:07;;;;;;;0.00;0.00;;;;;;;3.35;100.00;101905.25;10481843;28;20496;-82
2022/12/26 19:23:08;;;;;;;0.20;0.17;;;;;;;3.48;100.00;101916.41;10487147;28;20114;-82
2022/12/26 19:28:10;;;;;;;0.10;0.10;;;;;;;3.75;100.00;101924.25;10482532;28;20048;-81
2022/12/26 19:33:12;;;;;;;0.00;0.00;;;;;;;3.83;100.00;101929.00;10452824;28;20044;-81
2022/12/26 19:38:13;;;;;;;0.20;0.20;;;;;;;3.92;100.00;101927.97;10480479;28;20036;-82
2022/12/26 19:43:15;;;;;;;0.68;0.65;;;;;;;3.96;100.00;101926.50;10465400;28;20079;-81
2022/12/26 19:48:16;;;;;;;0.00;0.00;;;;;;;4.16;100.00;101934.63;10481904;28;20044;-82
2022/12/26 19:53:18;;;;;;;0.00;0.00;;;;;;;4.27;100.00;101941.38;10471389;28;20492;-83
2022/12/26 19:58:22;;;;;;;0.00;0.00;;;;;;;4.07;100.00;101932.34;10480018;28;20097;-81
2022/12/26 20:03:24;;;;;;;0.00;0.00;;;;;;;4.04;100.00;101943.22;10467743;28;20093;-80
2022/12/26 20:08:26;;;;;;;0.00;0.00;;;;;;;3.92;100.00;101943.25;10480647;28;20079;-83
2022/12/26 20:13:27;;;;;;;0.00;0.00;;;;;;;3.85;100.00;101955.44;10480732;28;20078;-82
2022/12/26 20:18:30;;;;;;;0.00;0.00;;;;;;;4.00;100.00;101945.44;10473108;28;20419;-82
2022/12/26 20:23:32;;;;;;;1.10;1.00;;;;;;;3.91;100.00;101961.88;10463305;28;20127;-83
2022/12/26 20:28:35;;;;;;;0.00;0.00;;;;;;;4.07;100.00;101952.75;10487159;28;20049;-81
2022/12/26 20:33:38;;;;;;;0.00;0.00;;;;;;;4.04;100.00;101950.88;10480320;28;20574;-82
2022/12/26 20:38:41;;;;;;;0.20;0.20;;;;;;;4.08;100.00;101937.53;10485649;28;20041;-81
2022/12/26 20:43:43;;;;;;;0.47;0.47;;;;;;;4.01;100.00;101937.91;10489520;28;20040;-80
2022/12/26 20:48:45;;;;;;;0.00;0.00;;;;;;;4.01;100.00;101943.00;10462793;28;20068;-82
2022/12/26 20:53:49;;;;;;;0.40;0.20;;;;;;;3.92;100.00;101952.56;10456115;28;20053;-83
2022/12/26 20:58:50;;;;;;;0.00;0.00;;;;;;;4.02;100.00;101962.63;10475535;28;20123;-83
2022/12/26 21:03:54;;;;;;;0.10;0.10;;;;;;;3.94;100.00;101957.00;10479887;28;20173;-82
2022/12/26 21:08:56;;;;;;;1.35;1.25;;;;;;;3.88;100.00;101966.75;10465371;28;20093;-83
2022/12/26 21:14:01;;;;;;;0.00;0.00;;;;;;;3.76;100.00;101963.34;10465424;28;20056;-82
2022/12/26 21:19:03;;;;;;;0.08;0.05;;;;;;;3.61;100.00;101975.91;10491508;28;20036;-83
2022/12/26 21:24:14;;;;;;;0.00;0.00;;;;;;;3.48;100.00;101985.19;10462838;28;20040;-83
2022/12/26 21:29:25;;;;;;;1.08;0.65;;;;;;;3.40;100.00;102006.69;10477747;28;20561;-83
2022/12/26 21:34:28;;;;;;;;;;;;;;;3.44;100.00;102008.69;10465767;28;20067;-83
2022/12/26 21:39:30;;;;;;;0.00;0.00;;;;;;;3.26;100.00;101999.69;10476959;28;19947;-82
2022/12/26 21:44:34;;;;;;;0.10;0.10;;;;;;;3.22;100.00;102007.91;10493500;28;20114;-83
2022/12/26 21:49:39;;;;;;;0.10;0.10;;;;;;;3.29;100.00;102008.44;10476950;28;20093;-83
2022/12/26 22:00:03;;;;;;;0.00;0.00;;;;;;;3.15;100.00;102014.19;10477390;28;20102;-83
2022/12/26 22:05:06;;;;;;;0.13;0.13;;;;;;;3.04;100.00;102015.94;10495574;28;20044;-82
2022/12/26 22:12:55;;;;;;;0.10;0.10;;;;;;;3.02;100.00;102037.84;10475507;28;20110;-83
2022/12/26 22:21:07;;;;;;;0.10;0.10;;;;;;;3.17;100.00;102055.94;10477496;28;20415;-83
2022/12/26 22:26:10;;;;;;;0.20;0.20;;;;;;;3.18;100.00;102056.03;10464370;28;20185;-83
2022/12/26 22:31:35;;;;;;;0.00;0.00;;;;;;;3.21;100.00;102065.56;10462602;28;20496;-83
2022/12/26 22:36:38;;;;;;;0.10;0.10;;;;;;;3.28;100.00;102074.56;10480584;28;20307;-82
2022/12/26 22:41:39;;;;;;;0.30;0.30;;;;;;;3.36;100.00;102080.22;10501611;28;20045;-82
2022/12/26 22:46:45;;;;;;;0.00;0.00;;;;;;;3.15;100.00;102085.50;10474048;28;20092;-83
2022/12/26 22:51:46;;;;;;;1.40;0.63;;;;;;;3.05;100.00;102081.38;10471394;28;20045;-83
2022/12/26 22:56:48;;;;;;;0.00;0.00;;;;;;;2.89;100.00;102078.44;10472592;28;20376;-83
2022/12/26 23:01:49;;;;;;;0.20;0.20;;;;;;;2.80;100.00;102087.13;10484516;28;20060;-81
2022/12/26 23:06:52;;;;;;;0.03;0.03;;;;;;;3.03;100.00;102089.66;10487105;28;20075;-82
2022/12/26 23:21:37;;;;;;;0.75;0.22;;;;;;;3.06;100.00;102103.50;10493968;28;20075;-86
2022/12/26 23:22:37;;;;;;;0.13;0.13;;;;;;;2.96;100.00;102098.47;10480423;28;20094;-85
2022/12/26 23:33:00;;;;;;;0.00;0.00;;;;;;;2.83;100.00;102110.28;10471539;28;20117;-86
2022/12/26 23:38:02;;;;;;;0.70;0.38;;;;;;;2.94;100.00;102113.66;10471686;28;20048;-86
2022/12/26 23:43:03;;;;;;;0.75;0.75;;;;;;;3.01;100.00;102123.53;10468991;28;20450;-85
2022/12/26 23:48:05;;;;;;;0.30;0.20;;;;;;;2.93;100.00;102122.06;10477473;28;20477;-86
2022/12/26 23:53:07;;;;;;;0.05;0.00;;;;;;;2.98;100.00;102124.97;10443657;28;20041;-86
2022/12/26 23:58:08;;;;;;;0.00;0.00;;;;;;;3.04;100.00;102122.00;10466414;28;20040;-86
